Date,TemperatureHighF,TemperatureAvgF,TemperatureLowF,DewpointHighF,DewpointAvgF,DewpointLowF,HumidityHigh,HumidityAvg,HumidityLow,PressureMaxIn,PressureMinIn,WindSpeedMaxMPH,WindSpeedAvgMPH,GustSpeedMaxMPH,PrecipitationSumIn
2013-1-1,35.0,32.7,31.0,35.0,32.5,31.0,100,99,91,0.00,40.00,6,2,19,1.15
2013-1-2,32.0,32.0,32.0,32.0,32.0,32.0,100,100,100,0.00,40.00,1,0,6,0.01
2013-1-3,35.0,33.6,32.0,34.0,32.8,31.0,100,97,88,0.00,40.00,6,3,13,0.43
2013-1-4,33.0,30.6,28.0,33.0,30.6,28.0,100,100,100,0.00,40.00,1,0,4,0.09
2013-1-5,39.0,32.1,29.0,35.0,30.6,25.0,100,95,67,0.00,40.00,5,1,14,0.10
2013-1-6,36.0,32.7,29.0,34.0,31.4,26.0,100,95,67,0.00,40.00,4,1,14,0.05
2013-1-7,34.0,32.9,32.0,33.0,31.1,29.0,100,93,82,0.00,40.00,4,2,10,0.04
2013-1-8,32.0,27.7,17.0,32.0,27.1,17.0,100,98,86,0.00,40.00,2,0,6,0.00
2013-1-9,24.0,15.5,11.0,23.0,13.6,8.0,98,92,87,0.00,40.00,2,0,7,0.00
2013-1-10,28.0,25.0,20.0,27.0,24.7,19.0,100,98,95,0.00,40.00,1,0,5,0.00
2013-1-11,35.0,31.3,21.0,32.0,28.5,20.0,100,90,71,0.00,40.00,5,1,15,0.00
2013-1-12,33.0,31.4,27.0,33.0,31.4,27.0,100,100,100,0.00,40.00,1,0,4,0.12
2013-1-13,35.0,33.2,32.0,35.0,33.2,32.0,100,100,100,0.00,40.00,1,0,9,0.56
2013-1-14,38.0,34.1,31.0,38.0,34.1,30.0,100,100,99,0.00,40.00,2,0,9,0.50
2013-1-15,30.0,23.0,17.0,30.0,22.6,16.0,100,98,94,0.00,40.00,1,0,4,0.03
2013-1-16,28.0,23.9,17.0,28.0,23.5,16.0,100,98,94,0.00,40.00,1,0,7,0.00
2013-1-17,25.0,20.2,11.0,24.0,16.7,8.0,96,86,69,0.00,40.00,2,1,11,0.00
2013-1-18,17.0,13.1,2.0,14.0,9.1,-2.0,88,84,77,0.00,40.00,1,0,4,0.00
2013-1-19,37.0,28.0,16.0,27.0,21.8,14.0,98,79,58,0.00,40.00,6,2,19,0.07
2013-1-20,36.0,32.9,26.0,35.0,31.2,26.0,100,93,71,0.00,40.00,6,3,16,0.45
2013-1-21,44.0,32.7,24.0,39.0,29.6,24.0,100,90,60,0.00,40.00,7,2,15,0.32
2013-1-22,44.0,40.7,36.0,35.0,30.1,27.0,84,66,56,0.00,40.00,5,3,14,0.47
2013-1-23,44.0,38.7,34.0,38.0,30.8,26.0,100,74,56,0.00,40.00,5,2,12,0.01
2013-1-24,38.0,32.8,28.0,34.0,30.0,26.0,100,91,65,0.00,40.00,2,0,9,0.00
2013-1-25,31.0,24.5,14.0,29.0,16.5,-6.0,100,74,40,0.00,40.00,5,2,16,0.00
2013-1-26,15.0,9.2,5.0,-2.0,-10.0,-14.0,53,41,32,0.00,40.00,5,2,17,0.00
2013-1-27,7.0,2.5,-6.0,-10.0,-16.4,-22.0,51,40,28,0.00,40.00,4,2,13,0.00
2013-1-28,14.0,2.1,-6.0,10.0,-11.7,-23.0,83,53,39,0.00,40.00,3,1,9,0.00
2013-1-29,28.0,21.7,14.0,23.0,18.8,10.0,96,88,77,0.00,40.00,1,0,6,0.00
2013-1-30,44.0,33.4,24.0,35.0,28.0,23.0,100,84,49,0.00,40.00,8,2,23,0.32
2013-1-31,35.0,30.8,25.0,35.0,30.8,24.0,100,100,100,0.00,40.00,0,0,3,0.21
2013-2-1,41.0,32.1,22.0,37.0,30.0,22.0,100,93,70,0.00,40.00,4,1,14,0.23
2013-2-2,40.0,34.9,31.0,38.0,33.1,28.0,100,93,67,0.00,40.00,3,1,14,0.14
2013-2-3,40.0,35.8,31.0,35.0,31.4,28.0,100,86,63,0.00,40.00,5,1,14,0.05
2013-2-4,35.0,31.7,30.0,35.0,31.7,30.0,100,100,100,0.00,40.00,1,0,3,0.05
2013-2-5,33.0,28.3,22.0,31.0,28.0,22.0,100,98,87,0.00,40.00,2,0,6,0.01
2013-2-6,31.0,26.8,23.0,30.0,25.6,20.0,100,95,79,0.00,40.00,3,1,9,0.00
2013-2-7,35.0,27.7,17.0,30.0,25.1,16.0,100,91,70,0.00,40.00,5,1,12,0.00
2013-2-8,35.0,27.9,22.0,30.0,26.9,22.0,100,96,75,0.00,40.00,1,0,4,0.00
2013-2-9,41.0,35.3,29.0,35.0,30.6,25.0,100,84,58,0.00,40.00,10,4,30,0.49
2013-2-10,36.0,33.0,31.0,35.0,32.5,30.0,100,98,93,0.00,40.00,4,1,11,0.48
2013-2-11,31.0,25.5,15.0,31.0,21.7,14.0,100,86,58,0.00,40.00,2,1,9,0.01
2013-2-12,34.0,26.7,20.0,28.0,24.1,18.0,100,90,75,0.00,40.00,3,1,9,0.00
2013-2-13,37.0,31.7,26.0,31.0,28.0,23.0,100,87,59,0.00,40.00,5,1,19,0.00
2013-2-14,40.0,35.8,31.0,34.0,28.3,21.0,97,75,50,0.00,40.00,5,3,19,0.25
2013-2-15,34.0,28.1,21.0,31.0,23.6,12.0,100,85,59,0.00,40.00,4,1,11,0.01
2013-2-16,31.0,19.1,9.0,17.0,10.3,7.0,93,71,46,0.00,40.00,4,1,18,0.00
2013-2-17,35.0,30.4,25.0,27.0,22.1,17.0,92,72,53,0.00,40.00,5,3,14,0.00
2013-2-18,26.0,19.5,7.0,21.0,11.2,2.0,83,71,52,0.00,40.00,3,2,11,0.00
2013-2-19,34.0,20.4,8.0,25.0,11.9,2.0,79,70,54,0.00,40.00,6,2,20,0.00
2013-2-20,34.0,27.8,24.0,23.0,21.8,20.0,90,78,62,0.00,40.00,6,2,13,0.00
2013-2-21,35.0,26.3,20.0,24.0,21.3,18.0,94,82,59,0.00,40.00,2,1,9,0.00
2013-2-22,33.0,25.1,15.0,24.0,13.4,5.0,86,62,38,0.00,40.00,3,2,10,0.00
2013-2-23,34.0,25.0,13.0,27.0,17.4,5.0,97,74,56,0.00,40.00,6,1,14,0.00
2013-2-24,38.0,28.8,23.0,28.0,25.1,22.0,100,87,67,0.00,40.00,2,0,6,0.04
2013-2-25,40.0,33.1,22.0,30.0,26.0,21.0,97,76,57,0.00,40.00,6,3,17,0.02
2013-2-26,45.0,36.0,33.0,32.0,26.6,21.0,96,70,43,0.00,40.00,7,5,17,0.02
2013-2-27,38.0,33.3,31.0,34.0,31.8,28.0,100,94,78,0.00,40.00,5,2,12,0.20
2013-2-28,40.0,33.3,29.0,33.0,30.6,26.0,100,90,70,0.00,40.00,2,0,11,0.09
2013-3-1,37.0,31.2,25.0,30.0,28.6,24.0,100,91,73,0.00,40.00,2,0,7,0.07
2013-3-2,39.0,26.2,15.0,27.0,21.8,13.0,100,86,58,0.00,40.00,1,0,5,0.03
2013-3-3,44.0,35.1,20.0,28.0,25.1,20.0,100,70,45,0.00,40.00,4,2,15,0.01
2013-3-4,44.0,34.9,28.0,32.0,29.8,28.0,100,83,58,0.00,40.00,2,1,7,0.01
2013-3-5,45.0,33.9,28.0,34.0,28.7,24.0,100,83,52,0.00,40.00,3,1,9,0.00
2013-3-6,41.0,32.6,27.0,30.0,26.7,23.0,91,79,63,0.00,40.00,2,0,9,0.00
2013-3-7,42.0,36.0,30.0,32.0,26.7,21.0,93,71,42,0.00,40.00,9,4,27,0.08
2013-3-8,45.0,38.7,32.0,32.0,27.1,23.0,100,65,49,0.00,40.00,7,2,20,0.08
2013-3-9,46.0,33.7,29.0,37.0,30.8,29.0,100,90,61,0.00,40.00,2,0,7,0.05
2013-3-10,35.0,30.9,26.0,31.0,28.0,23.0,100,89,80,0.00,40.00,1,0,5,0.03
2013-3-11,37.0,29.8,23.0,28.0,22.8,16.0,100,77,52,0.00,40.00,3,1,10,0.01
2013-3-12,36.0,21.7,12.0,16.0,11.0,5.0,93,67,36,0.00,40.00,3,1,8,0.00
2013-3-13,37.0,17.4,4.0,12.0,3.1,-7.0,83,58,17,0.00,40.00,3,1,11,0.00
2013-3-14,33.0,23.8,18.0,22.0,14.0,5.0,94,67,45,0.00,40.00,4,2,10,0.00
2013-3-15,40.0,20.6,7.0,23.0,13.9,3.0,93,78,45,0.00,40.00,1,0,4,0.00
2013-3-16,40.0,16.6,2.0,19.0,7.0,-3.0,88,69,33,0.00,40.00,1,0,5,0.00
2013-3-17,40.0,20.7,3.0,16.0,4.8,-2.0,88,56,24,0.00,40.00,3,1,11,0.02
2013-3-18,38.0,17.6,3.0,8.0,2.1,-2.0,80,54,27,0.00,40.00,3,1,9,0.01
2013-3-19,32.0,18.1,2.0,6.0,-1.2,-7.0,76,46,22,0.00,40.00,4,2,13,0.01
2013-3-20,33.0,21.1,11.0,-1.0,-6.4,-13.0,48,30,15,0.00,40.00,4,2,16,0.00
2013-3-21,37.0,17.5,1.0,7.0,-1.4,-6.0,74,48,18,0.00,40.00,2,1,6,0.00
2013-3-22,30.0,26.0,21.0,27.0,20.3,7.0,100,80,52,0.00,40.00,3,1,7,0.00
2013-3-23,42.0,32.5,26.0,32.0,29.3,26.0,100,89,64,0.00,40.00,1,0,7,0.00
2013-3-24,30.0,27.4,24.0,30.0,24.9,21.0,100,90,80,0.00,40.00,3,1,9,0.00
2013-3-25,27.0,21.8,9.0,21.0,14.6,2.0,93,75,50,0.00,40.00,4,2,16,0.00
2013-3-26,29.0,14.3,5.0,7.0,1.1,-5.0,78,58,35,0.00,40.00,3,1,7,0.00
2013-3-27,35.0,9.2,-10.0,7.0,-4.3,-18.0,72,57,28,0.00,40.00,2,0,6,0.00
2013-3-28,38.0,34.2,26.0,19.0,17.8,15.0,75,51,43,0.00,40.00,6,4,19,0.00
2013-3-29,42.0,37.2,31.0,27.0,23.3,19.0,70,57,45,0.00,40.00,5,3,16,0.24
2013-3-30,49.0,34.5,25.0,33.0,27.3,22.0,99,77,47,0.00,40.00,3,1,11,0.24
2013-3-31,51.0,34.2,26.0,34.0,27.2,19.0,100,79,35,0.00,40.00,4,1,8,0.18
2013-4-1,45.0,32.9,21.0,26.0,21.3,15.0,100,66,36,0.00,40.00,3,1,9,0.03
2013-4-2,50.0,29.7,16.0,26.0,18.2,15.0,95,68,28,0.00,40.00,3,0,11,0.01
2013-4-3,51.0,33.1,20.0,28.0,21.0,16.0,98,65,29,0.00,40.00,4,1,11,0.00
2013-4-4,49.0,29.8,15.0,23.0,16.5,6.0,97,65,24,0.00,40.00,3,0,8,0.00
2013-4-5,46.0,27.5,12.0,21.0,15.6,10.0,92,65,29,0.00,40.00,3,1,11,0.00
2013-4-6,43.0,31.3,27.0,30.0,24.9,22.0,94,78,51,0.00,40.00,3,1,10,0.00
2013-4-7,36.0,26.3,17.0,24.0,12.1,0.0,91,59,31,0.00,40.00,5,2,14,0.01
2013-4-8,30.0,20.7,12.0,13.0,9.0,1.0,76,61,46,0.00,40.00,3,2,12,0.01
2013-4-9,32.0,22.5,18.0,12.0,7.7,2.0,73,54,31,0.00,40.00,4,2,13,0.00
2013-4-10,30.0,20.5,7.0,5.0,-0.3,-5.0,58,41,25,0.00,40.00,4,2,12,0.00
2013-4-11,33.0,15.8,-1.0,2.0,-3.7,-8.0,73,46,19,0.00,40.00,5,2,14,0.00
2013-4-12,35.0,18.9,4.0,2.0,-2.3,-7.0,73,44,20,0.00,40.00,4,2,14,0.01
2013-4-13,40.0,22.7,5.0,4.0,0.6,-3.0,69,42,21,0.00,40.00,3,2,13,0.01
2013-4-14,45.0,29.4,16.0,12.0,6.1,1.0,57,39,21,0.00,40.00,4,2,12,0.00
2013-4-15,48.0,26.3,12.0,19.0,8.5,3.0,76,51,20,0.00,40.00,3,1,9,0.00
2013-4-16,44.0,26.1,10.0,14.0,7.5,1.0,81,50,22,0.00,40.00,3,1,9,0.00
2013-4-17,38.0,27.1,17.0,10.0,7.0,4.0,63,44,27,0.00,40.00,4,2,15,0.00
2013-4-18,49.0,28.7,13.0,16.0,10.7,7.0,79,50,25,0.00,40.00,2,1,10,0.00
2013-4-19,51.0,29.3,14.0,19.0,11.9,8.0,86,54,21,0.00,40.00,4,1,11,0.00
2013-4-20,52.0,27.1,15.0,21.0,14.2,9.0,91,64,17,0.00,40.00,4,1,11,0.00
2013-4-21,42.0,34.7,24.0,23.0,19.9,16.0,80,56,42,0.00,40.00,6,2,16,0.00
2013-4-22,58.0,38.9,26.0,29.0,22.7,20.0,85,55,26,0.00,40.00,4,1,11,0.00
2013-4-23,39.0,36.5,31.0,36.0,33.2,24.0,100,88,74,0.00,40.00,5,2,15,0.54
2013-4-24,52.0,39.5,30.0,38.0,31.0,16.0,100,75,47,0.00,40.00,4,1,14,0.06
2013-4-25,51.0,39.7,26.0,23.0,12.4,0.0,71,37,16,0.00,40.00,4,2,16,0.01
2013-4-26,47.0,34.7,22.0,14.0,8.7,1.0,59,36,17,0.00,40.00,4,2,12,0.00
2013-4-27,48.0,35.5,20.0,16.0,11.7,6.0,74,41,19,0.00,40.00,3,1,10,0.00
2013-4-28,47.0,36.9,27.0,11.0,5.9,-2.0,51,28,16,0.00,40.00,4,3,16,0.00
2013-4-29,51.0,33.4,19.0,20.0,14.3,12.0,76,50,21,0.00,40.00,3,1,9,0.00
2013-4-30,44.0,37.2,29.0,27.0,21.9,19.0,79,55,38,0.00,40.00,2,1,6,0.00
2013-5-1,51.0,38.6,28.0,27.0,23.4,21.0,82,57,33,0.00,40.00,5,2,12,0.00
2013-5-2,45.0,37.2,33.0,38.0,33.9,24.0,100,88,69,0.00,40.00,3,1,9,0.16
2013-5-3,45.0,38.6,34.0,39.0,35.8,34.0,100,90,70,0.00,40.00,4,1,12,0.09
2013-5-4,41.0,36.0,32.0,37.0,33.8,32.0,100,92,83,0.00,40.00,2,1,6,0.62
2013-5-5,54.0,40.0,28.0,33.0,27.7,24.0,100,66,35,0.00,40.00,3,1,8,0.01
2013-5-6,54.0,41.1,29.0,32.0,28.2,23.0,100,64,34,0.00,40.00,4,1,10,0.00
2013-5-7,51.0,40.4,30.0,32.0,28.0,25.0,96,64,39,0.00,40.00,3,2,9,0.00
2013-5-8,58.0,39.5,24.0,31.0,25.2,19.0,100,64,26,0.00,40.00,5,1,11,0.00
2013-5-9,58.0,41.4,27.0,33.0,27.2,22.0,91,62,28,0.00,40.00,3,1,9,0.00
2013-5-10,65.0,46.6,28.0,32.0,26.6,21.0,90,52,22,0.00,40.00,4,1,10,0.00
2013-5-11,55.0,45.9,38.0,41.0,37.7,32.0,100,75,51,0.00,40.00,3,1,9,0.02
2013-5-12,56.0,45.2,37.0,43.0,39.7,37.0,100,83,52,0.00,40.00,3,0,7,0.05
2013-5-13,49.0,42.5,38.0,41.0,38.9,34.0,100,88,63,0.00,40.00,4,1,9,0.48
2013-5-14,40.0,35.3,33.0,37.0,33.7,28.0,100,94,73,0.00,40.00,3,1,9,0.28
2013-5-15,47.0,36.6,25.0,33.0,28.1,24.0,100,75,40,0.00,40.00,3,1,10,0.01
2013-5-16,47.0,37.9,35.0,35.0,11.3,-99.9,92,64,46,0.00,40.00,7,3,21,0.01
2013-5-17,41.0,37.6,36.0,37.0,27.9,-99.9,99,85,59,0.00,40.00,3,1,12,0.28
2013-5-18,40.0,35.4,31.0,35.0,24.3,18.0,100,66,45,0.00,40.00,4,2,14,0.05
2013-5-19,50.0,39.7,23.0,27.0,14.4,8.0,88,41,20,0.00,40.00,4,2,11,0.01
2013-5-20,59.0,37.9,21.0,28.0,19.5,13.0,93,54,16,0.00,40.00,4,1,10,0.00
2013-5-21,59.0,42.1,26.0,31.0,23.9,20.0,91,53,24,0.00,40.00,3,1,11,0.00
2013-5-22,58.0,43.8,32.0,38.0,31.8,24.0,85,65,40,0.00,40.00,3,2,11,0.00
2013-5-23,62.0,47.0,38.0,41.0,38.4,34.0,100,75,43,0.00,40.00,2,1,9,0.00
2013-5-24,69.0,46.7,28.0,40.0,33.5,28.0,100,68,25,0.00,40.00,3,1,10,0.00
2013-5-25,65.0,46.7,27.0,38.0,33.2,27.0,100,65,34,0.00,40.00,5,2,14,0.00
2013-5-26,48.0,42.6,36.0,47.0,40.3,35.0,100,92,71,0.00,40.00,3,1,10,0.21
2013-5-27,65.0,52.3,42.0,46.0,42.4,38.0,100,73,42,0.00,40.00,5,2,14,0.06
2013-5-28,79.0,54.0,32.0,42.0,36.8,28.0,100,63,17,0.00,40.00,4,1,10,0.00
2013-5-29,79.0,51.0,33.0,42.0,35.1,32.0,100,62,21,0.00,40.00,5,2,13,0.00
2013-5-30,69.0,55.2,33.0,45.0,39.2,33.0,100,59,34,0.00,40.00,6,3,14,0.00
2013-5-31,62.0,50.2,43.0,43.0,40.7,39.0,88,71,48,0.00,40.00,5,2,12,0.00
2013-6-1,57.0,47.8,43.0,45.0,41.6,39.0,100,80,57,0.00,40.00,4,1,11,0.08
2013-6-2,60.0,48.1,43.0,44.0,41.1,35.0,100,80,45,0.00,40.00,4,2,11,0.25
2013-6-3,58.0,47.6,39.0,44.0,37.4,31.0,100,71,42,0.00,40.00,4,2,10,0.01
2013-6-4,55.0,47.4,40.0,43.0,37.3,33.0,88,68,55,0.00,40.00,4,1,11,0.03
2013-6-5,63.0,48.1,29.0,39.0,33.1,28.0,100,61,32,0.00,40.00,3,1,11,0.01
2013-6-6,67.0,52.5,42.0,34.0,31.4,25.0,67,47,22,0.00,40.00,4,2,13,0.00
2013-6-7,70.0,51.7,34.0,39.0,33.5,30.0,94,56,23,0.00,40.00,5,2,14,0.00
2013-6-8,79.0,56.1,36.0,47.0,37.6,34.0,100,58,23,0.00,40.00,2,1,8,0.00
2013-6-9,80.0,53.2,37.0,52.0,41.0,36.0,100,68,25,0.00,40.00,3,1,11,0.04
2013-6-10,80.0,60.4,36.0,47.0,39.3,35.0,100,55,20,0.00,40.00,3,1,13,0.04
2013-6-11,79.0,59.4,39.0,53.0,42.1,38.0,98,59,26,0.00,40.00,3,0,11,0.00
2013-6-12,73.0,56.3,37.0,49.0,42.2,37.0,100,65,29,0.00,40.00,3,1,11,0.00
2013-6-13,65.0,52.6,41.0,55.0,47.2,40.0,100,83,54,0.00,40.00,4,1,13,0.18
2013-6-14,77.0,55.2,43.0,53.0,47.1,43.0,100,78,35,0.00,40.00,5,2,16,0.02
2013-6-15,81.0,55.5,40.0,52.0,45.3,40.0,100,75,25,0.00,40.00,3,1,11,0.00
2013-6-16,85.0,63.1,42.0,52.0,46.8,42.0,100,64,27,0.00,40.00,3,1,9,0.00
2013-6-17,92.0,66.1,44.0,54.0,48.7,44.0,100,62,24,0.00,40.00,2,0,6,0.00
2013-6-18,78.0,60.9,47.0,58.0,47.6,42.0,100,67,31,0.00,40.00,6,2,17,0.02
2013-6-19,66.0,54.2,39.0,52.0,45.6,39.0,100,76,45,0.00,40.00,5,2,17,0.04
2013-6-20,63.0,47.7,38.0,53.0,45.3,38.0,100,92,70,0.00,40.00,4,1,10,0.01
2013-6-22,65.0,56.2,42.0,47.0,45.0,42.0,99,68,49,0.00,40.00,5,2,11,0.00
2013-6-23,64.0,55.3,46.0,49.0,45.5,43.0,96,72,50,0.00,40.00,3,2,10,0.00
2013-6-24,75.0,59.1,47.0,50.0,46.6,45.0,91,67,34,0.00,40.00,2,0,6,0.00
2013-6-25,79.0,62.0,42.0,56.0,48.8,42.0,100,65,38,0.00,40.00,3,1,10,0.00
2013-6-26,71.0,60.6,45.0,55.0,49.8,45.0,100,70,45,0.00,40.00,4,1,14,0.00
2013-6-27,73.0,58.5,47.0,57.0,51.7,47.0,100,80,53,0.00,40.00,5,2,13,0.00
2013-6-28,60.0,54.4,51.0,54.0,51.6,50.0,96,90,78,0.00,40.00,2,1,9,0.00
2013-6-29,68.0,57.9,51.0,54.0,52.4,50.0,99,83,59,0.00,40.00,3,1,8,0.00
2013-6-30,56.0,53.2,50.0,52.0,50.2,46.0,95,90,84,0.00,40.00,4,2,12,0.00
2013-7-1,54.0,50.9,46.0,50.0,47.3,45.0,100,88,71,0.00,40.00,3,1,10,0.09
2013-7-2,56.0,49.3,45.0,49.0,46.0,44.0,100,89,68,0.00,40.00,3,2,10,0.06
2013-7-3,55.0,50.5,46.0,48.0,46.1,45.0,98,85,73,0.00,40.00,3,2,11,0.02
2013-7-4,53.0,48.9,46.0,51.0,47.2,44.0,100,94,89,0.00,40.00,2,1,9,0.18
2013-7-5,56.0,49.8,45.0,50.0,47.6,45.0,100,93,73,0.00,40.00,2,0,6,0.50
2013-7-6,59.0,50.9,46.0,52.0,48.7,46.0,100,92,78,0.00,40.00,1,0,6,0.45
2013-7-7,61.0,52.2,48.0,54.0,48.9,45.0,100,89,75,0.00,40.00,4,1,12,0.30
2013-7-8,67.0,50.6,43.0,50.0,45.0,43.0,100,84,46,0.00,40.00,4,1,10,0.01
2013-7-9,68.0,55.7,46.0,51.0,47.1,44.0,99,75,47,0.00,40.00,2,0,7,0.00
2013-7-10,75.0,58.0,43.0,53.0,42.8,-99.9,100,65,36,0.00,40.00,2,1,7,0.00
2013-7-11,81.0,57.1,43.0,55.0,47.9,43.0,100,76,32,0.00,40.00,3,0,9,0.00
2013-7-12,83.0,55.6,40.0,55.0,46.6,40.0,100,77,30,0.00,40.00,4,1,12,0.00
2013-7-13,70.0,58.9,47.0,56.0,51.7,46.0,98,78,57,0.00,40.00,5,2,14,0.00
2013-7-14,68.0,57.0,52.0,53.0,51.0,49.0,94,81,58,0.00,40.00,4,1,12,0.00
2013-7-15,74.0,57.6,47.0,58.0,51.3,47.0,100,82,55,0.00,40.00,3,0,9,0.00
2013-7-16,72.0,64.9,59.0,60.0,53.7,52.0,81,68,52,0.00,40.00,1,0,6,0.00
2013-7-17,75.0,61.5,51.0,61.0,54.6,51.0,99,79,51,0.00,40.00,2,0,7,0.00
2013-7-18,80.0,64.2,50.0,60.0,55.2,50.0,100,75,49,0.00,40.00,3,1,9,0.00
2013-7-19,74.0,63.6,54.0,58.0,53.5,47.0,99,72,44,0.00,40.00,3,1,10,0.00
2013-7-20,72.0,60.8,48.0,55.0,46.0,-99.9,95,64,34,0.00,40.00,3,1,13,0.00
2013-7-21,78.0,64.2,43.0,52.0,47.0,41.0,98,57,32,0.00,40.00,2,1,9,0.00
2013-7-22,82.0,64.4,45.0,54.0,50.0,43.0,98,65,32,0.00,40.00,4,2,12,0.00
2013-7-23,79.0,58.3,44.0,57.0,51.4,44.0,100,81,43,0.00,40.00,4,1,11,0.00
2013-7-24,83.0,60.4,44.0,58.0,50.9,44.0,100,76,34,0.00,40.00,5,2,16,0.00
2013-7-25,75.0,61.1,54.0,59.0,55.1,53.0,99,82,57,0.00,40.00,4,2,14,0.00
2013-7-26,72.0,61.1,55.0,62.0,56.2,54.0,100,85,64,0.00,40.00,3,1,10,0.61
2013-7-27,78.0,62.4,53.0,60.0,55.5,53.0,99,80,52,0.00,40.00,3,1,8,0.04
2013-7-28,83.0,59.6,47.0,61.0,53.9,47.0,100,84,43,0.00,40.00,5,1,12,0.00
2013-7-29,81.0,59.8,46.0,60.0,53.3,46.0,100,82,48,0.00,40.00,5,1,13,0.00
2013-7-30,81.0,62.1,52.0,62.0,55.4,52.0,100,82,53,0.00,40.00,6,2,14,0.00
2013-7-31,74.0,60.4,54.0,57.0,54.8,53.0,100,83,55,0.00,40.00,5,2,14,0.00
2013-8-1,71.0,60.7,54.0,57.0,53.1,50.0,94,77,55,0.00,40.00,5,2,13,0.00
2013-8-2,67.0,58.5,53.0,54.0,51.2,48.0,95,78,60,0.00,40.00,3,2,10,0.00
2013-8-3,60.0,55.0,52.0,54.0,52.4,50.0,100,91,75,0.00,40.00,4,2,16,0.28
2013-8-4,59.0,54.1,51.0,54.0,52.2,51.0,100,94,84,0.00,40.00,1,1,6,0.10
2013-8-5,61.0,54.9,51.0,55.0,52.5,50.0,100,92,78,0.00,40.00,2,1,11,0.02
2013-8-6,64.0,56.9,51.0,53.0,50.0,47.0,99,80,55,0.00,40.00,5,2,15,0.01
2013-8-7,63.0,54.8,51.0,56.0,52.8,49.0,100,93,72,0.00,40.00,2,0,9,0.14
2013-8-8,64.0,53.3,50.0,53.0,49.2,46.0,100,87,57,0.00,40.00,4,2,14,0.22
2013-8-9,61.0,53.7,48.0,53.0,49.3,45.0,100,86,65,0.00,40.00,4,2,11,0.37
2013-8-10,67.0,56.6,50.0,58.0,51.8,49.0,100,85,61,0.00,40.00,4,1,11,0.16
2013-8-11,57.0,53.1,49.0,56.0,52.6,49.0,100,98,95,0.00,40.00,0,0,2,0.70
2013-8-12,65.0,57.4,52.0,58.0,54.8,52.0,100,92,77,0.00,40.00,3,1,9,0.03
2013-8-13,71.0,57.6,52.0,58.0,51.8,-99.9,99,86,61,0.00,40.00,4,2,12,0.00
2013-8-14,69.0,55.3,51.0,54.0,49.8,-99.9,100,85,56,0.00,40.00,1,0,6,0.00
2013-8-15,73.0,49.8,39.0,56.0,32.7,-99.9,100,75,40,0.00,40.00,4,1,12,0.00
2013-8-16,57.0,51.3,47.0,56.0,48.2,-99.9,100,95,90,0.00,40.00,1,0,7,0.14
2013-8-17,63.0,55.8,50.0,57.0,52.0,50.0,100,88,65,0.00,40.00,3,1,9,0.01
2013-8-18,60.0,52.4,46.0,57.0,51.6,46.0,100,97,87,0.00,40.00,1,0,4,0.17
2013-8-21,54.0,51.3,49.0,53.0,50.6,49.0,100,98,89,0.00,40.00,2,0,9,0.49
2013-8-22,55.0,51.4,48.0,54.0,51.0,48.0,100,99,94,0.00,40.00,0,0,3,0.25
2013-8-23,68.0,54.8,50.0,57.0,51.8,50.0,100,91,57,0.00,40.00,1,0,8,0.02
2013-8-24,71.0,56.8,44.0,55.0,47.8,44.0,100,76,45,0.00,40.00,2,1,9,0.00
2013-8-25,73.0,51.2,36.0,52.0,43.1,36.0,100,79,37,0.00,40.00,4,1,11,0.00
2013-8-26,68.0,49.4,35.0,52.0,44.9,35.0,100,87,52,0.00,40.00,1,0,6,0.00
2013-8-27,56.0,47.0,44.0,52.0,46.5,44.0,100,98,86,0.00,40.00,0,0,3,0.00
2013-8-28,60.0,55.2,51.0,56.0,52.4,51.0,100,91,75,0.00,40.00,2,1,6,0.48
2013-8-29,57.0,53.2,50.0,56.0,52.3,50.0,100,96,87,0.00,40.00,2,1,9,0.81
2013-8-30,64.0,54.7,46.0,56.0,51.2,46.0,100,89,66,0.00,40.00,1,0,4,0.01
2013-8-31,56.0,52.3,48.0,54.0,51.4,48.0,100,96,82,0.00,40.00,1,0,5,0.04
2013-9-1,60.0,53.0,48.0,53.0,50.3,48.0,100,91,70,0.00,40.00,3,1,10,0.01
2013-9-2,59.0,52.3,49.0,55.0,50.9,48.0,100,95,78,0.00,40.00,3,1,11,0.32
2013-9-3,62.0,52.8,49.0,54.0,49.2,45.0,100,88,67,0.00,40.00,6,2,21,0.20
2013-9-4,60.0,51.5,44.0,54.0,48.9,43.0,100,92,66,0.00,40.00,3,1,10,0.77
2013-9-5,60.0,48.2,38.0,50.0,44.7,38.0,100,89,59,0.00,40.00,2,0,8,0.01
2013-9-6,56.0,50.7,44.0,54.0,48.8,44.0,100,93,69,0.00,40.00,4,1,9,0.61
2013-9-7,58.0,51.9,49.0,54.0,50.5,49.0,100,95,80,0.00,40.00,3,1,9,0.40
2013-9-17,51.0,46.3,43.0,49.0,45.4,43.0,100,97,90,0.00,40.00,0,0,3,0.10
2013-9-18,48.0,44.9,43.0,45.0,44.3,43.0,100,98,87,0.00,40.00,0,0,4,0.01
2013-9-19,49.0,42.9,31.0,45.0,39.4,28.0,100,89,59,0.00,40.00,2,0,10,0.04
2013-9-20,54.0,38.9,29.0,33.0,28.2,25.0,100,70,33,0.00,40.00,2,1,11,0.02
2013-9-21,49.0,38.2,27.0,40.0,34.8,27.0,100,88,65,0.00,40.00,2,1,9,0.01
2013-9-22,40.0,37.5,36.0,39.0,35.9,33.0,100,94,82,0.00,40.00,2,1,11,0.47
2013-9-23,39.0,34.5,29.0,37.0,33.2,28.0,100,95,83,0.00,40.00,2,1,7,0.17
2013-9-24,48.0,35.8,26.0,41.0,33.2,26.0,100,92,65,0.00,40.00,1,0,4,0.01
2013-9-25,51.0,45.3,42.0,48.0,43.5,40.0,100,94,77,0.00,40.00,5,2,15,1.07
2013-9-26,53.0,44.8,40.0,48.0,43.5,40.0,100,95,80,0.00,40.00,1,0,6,0.07
2013-9-27,48.0,44.4,41.0,43.0,41.3,40.0,100,89,74,0.00,40.00,5,2,16,0.15
2013-9-28,57.0,43.6,33.0,45.0,38.3,33.0,100,84,48,0.00,40.00,1,0,6,0.01
2013-9-29,51.0,41.2,31.0,38.0,34.4,31.0,100,79,55,0.00,40.00,3,1,11,0.00
2013-9-30,56.0,40.3,28.0,35.0,31.7,28.0,100,76,40,0.00,40.00,1,1,9,0.00
2013-10-3,51.0,43.9,37.0,42.0,39.3,37.0,100,85,61,0.00,40.00,6,3,21,0.03
2013-10-4,57.0,43.9,33.0,45.0,38.9,33.0,100,85,51,0.00,40.00,2,0,9,0.02
2013-10-5,51.0,38.7,29.0,45.0,36.5,29.0,100,93,75,0.00,40.00,3,1,11,0.00
2013-10-6,44.0,41.0,37.0,43.0,40.0,37.0,100,96,87,0.00,40.00,3,0,10,0.07
2013-10-7,50.0,36.8,28.0,43.0,35.0,28.0,100,94,69,0.00,40.00,1,0,5,0.03
2013-10-8,46.0,41.5,36.0,42.0,39.6,36.0,100,93,76,0.00,40.00,7,2,21,0.59
2013-10-9,53.0,40.9,28.0,38.0,32.5,26.0,100,76,41,0.00,40.00,3,1,17,0.11
2013-10-17,49.0,44.9,42.0,44.0,41.8,38.0,100,89,69,0.00,40.00,5,1,14,0.07
2013-10-18,48.0,43.2,40.0,43.0,40.5,35.0,100,91,60,0.00,40.00,6,2,19,0.65
2013-10-19,45.0,42.2,40.0,43.0,40.1,34.0,100,93,66,0.00,40.00,6,2,17,0.62
2013-10-20,44.0,39.0,36.0,41.0,38.4,36.0,100,98,90,0.00,40.00,2,0,9,0.18
2013-10-21,42.0,36.8,32.0,42.0,36.5,32.0,100,99,91,0.00,40.00,3,0,11,0.15
2013-10-22,44.0,35.7,27.0,43.0,34.8,27.0,100,97,76,0.00,40.00,1,0,4,0.05
2013-10-23,35.0,27.9,22.0,34.0,27.2,22.0,100,97,84,0.00,40.00,3,1,7,0.01
2013-10-24,44.0,34.6,23.0,39.0,32.9,23.0,100,94,65,0.00,40.00,5,2,17,0.66
2013-10-25,44.0,35.6,29.0,41.0,34.3,29.0,100,95,82,0.00,40.00,3,1,12,0.07
2013-10-26,42.0,31.6,26.0,40.0,31.0,26.0,100,98,87,0.00,40.00,1,0,4,0.00
2013-10-27,51.0,44.9,39.0,44.0,39.0,32.0,100,81,58,0.00,40.00,9,4,20,0.35
2013-10-28,50.0,45.1,37.0,48.0,43.1,-99.9,100,96,85,0.00,40.00,5,2,19,2.23
2013-10-29,44.0,36.7,31.0,43.0,36.5,31.0,100,99,79,0.00,40.00,4,0,11,0.01
2013-10-30,47.0,43.7,41.0,40.0,36.6,33.0,91,77,59,0.00,40.00,5,3,18,0.03
2013-10-31,44.0,40.4,36.0,41.0,38.3,36.0,100,92,84,0.00,40.00,2,0,7,0.06
2013-11-1,42.0,38.3,35.0,41.0,37.9,35.0,100,99,92,0.00,40.00,1,0,4,0.11
2013-11-2,40.0,36.3,34.0,37.0,35.6,34.0,100,97,85,0.00,40.00,2,0,11,0.04
2013-11-3,43.0,38.4,35.0,42.0,37.0,35.0,100,95,82,0.00,40.00,2,0,8,0.01
2013-11-4,44.0,41.9,36.0,38.0,35.4,33.0,100,78,68,0.00,40.00,5,2,12,0.00
2013-11-5,41.0,34.1,29.0,36.0,32.4,27.0,100,94,71,0.00,40.00,1,0,5,0.01
2013-11-6,34.0,26.4,22.0,26.0,23.6,21.0,100,89,66,0.00,40.00,2,0,6,0.01
2013-11-7,35.0,29.1,22.0,33.0,28.3,22.0,100,97,90,0.00,40.00,2,0,4,0.00
2013-11-8,33.0,26.1,20.0,27.0,22.3,17.0,100,86,61,0.00,40.00,3,1,8,0.00
2013-11-9,35.0,27.9,21.0,33.0,25.0,19.0,97,89,73,0.00,40.00,2,0,8,0.00
2013-11-10,33.0,32.4,32.0,33.0,32.4,32.0,100,100,100,0.00,40.00,1,0,6,0.21
2013-11-11,33.0,30.1,21.0,33.0,27.1,19.0,100,89,75,0.00,40.00,3,2,11,0.09
2013-11-12,23.0,18.3,16.0,19.0,16.0,13.0,100,91,79,0.00,40.00,3,2,9,0.01
2013-11-13,28.0,22.1,18.0,24.0,19.4,15.0,100,89,78,0.00,40.00,3,1,7,0.00
2013-11-14,36.0,29.9,24.0,34.0,28.8,21.0,100,96,53,0.00,40.00,2,0,14,0.00
2013-11-15,33.0,27.0,23.0,28.0,23.9,16.0,100,89,53,0.00,40.00,3,1,12,0.00
2013-11-16,29.0,24.5,20.0,20.0,9.3,4.0,78,52,42,0.00,40.00,4,2,16,0.00
2013-11-17,21.0,14.0,4.0,10.0,3.4,-2.0,86,64,38,0.00,40.00,3,1,11,0.00
2013-11-18,15.0,5.7,1.0,4.0,-0.1,-3.0,93,78,45,0.00,40.00,3,1,10,0.00
2013-11-19,14.0,2.9,-3.0,4.0,-1.9,-5.0,95,81,49,0.00,40.00,2,1,7,0.00
2013-11-20,13.0,9.7,7.0,6.0,3.2,0.0,84,74,62,0.00,40.00,4,2,10,0.00
2013-11-21,36.0,16.8,5.0,35.0,12.9,1.0,98,85,64,0.00,40.00,10,2,29,0.94
2013-11-22,38.0,33.5,27.0,38.0,31.3,22.0,100,92,72,0.00,40.00,4,1,14,1.60
2013-11-23,26.0,20.7,13.0,25.0,20.2,13.0,100,98,90,0.00,40.00,0,0,4,0.01
2013-11-24,32.0,28.6,26.0,32.0,28.6,26.0,100,100,100,0.00,40.00,0,0,4,0.00
2013-11-25,33.0,28.9,27.0,33.0,28.9,27.0,100,100,96,0.00,40.00,1,0,5,0.00
2013-11-26,32.0,30.1,28.0,32.0,30.1,28.0,100,100,98,0.00,40.00,1,0,4,0.00
2013-12-12,14.0,9.1,2.0,9.0,6.7,1.0,97,90,75,0.00,40.00,2,0,6,0.00
2013-12-13,21.0,16.5,11.0,21.0,15.3,9.0,98,95,89,0.00,40.00,3,1,9,0.00
2013-12-14,25.0,19.5,16.0,25.0,19.0,15.0,100,98,93,0.00,40.00,2,1,9,0.00
2013-12-15,18.0,14.4,5.0,18.0,13.0,4.0,98,94,90,0.00,40.00,2,1,7,0.00
2013-12-16,6.0,-2.4,-7.0,6.0,-4.7,-10.0,98,90,87,0.00,40.00,2,0,5,0.00
2013-12-17,-1.0,-6.2,-11.0,-3.0,-8.9,-14.0,93,87,84,0.00,40.00,2,1,6,0.00
2013-12-18,28.0,3.9,-15.0,26.0,1.2,-19.0,100,88,83,0.00,40.00,5,2,14,0.00
2013-12-19,31.0,18.6,7.0,26.0,16.9,5.0,100,93,81,0.00,40.00,5,1,14,0.00
2013-12-20,27.0,16.9,9.0,27.0,16.2,8.0,100,97,95,0.00,40.00,1,0,4,0.00
2013-12-21,33.0,30.0,28.0,33.0,29.9,28.0,100,100,96,0.00,40.00,1,0,6,0.00
2013-12-22,33.0,31.2,24.0,33.0,29.8,20.0,100,94,84,0.00,40.00,3,1,10,0.00
2013-12-23,23.0,12.6,0.0,20.0,8.2,-1.0,95,83,49,0.00,40.00,5,1,12,0.00
2013-12-24,13.0,1.2,-7.0,13.0,-0.4,-9.0,98,92,88,0.00,40.00,2,0,6,0.00
2013-12-25,4.0,1.0,-2.0,2.0,-0.9,-4.0,94,92,89,0.00,40.00,2,0,6,0.00
2013-12-26,11.0,4.6,-3.0,9.0,3.1,-5.0,98,93,89,0.00,40.00,2,0,4,0.00